sensor_id;sensor_type;location;lat;lon;timestamp;P1;durP1;ratioP1;P2;durP2;ratioP2
44696;SDS011;57264;47.480;19.354;2023-01-28T00:01:26;55.60;;;50.67;;
44696;SDS011;57264;47.480;19.354;2023-01-28T00:03:52;57.13;;;52.23;;
44696;SDS011;57264;47.480;19.354;2023-01-28T00:06:17;55.47;;;50.53;;
44696;SDS011;57264;47.480;19.354;2023-01-28T00:08:45;47.28;;;42.50;;
44696;SDS011;57264;47.480;19.354;2023-01-28T00:11:11;58.53;;;53.47;;
44696;SDS011;57264;47.480;19.354;2023-01-28T00:13:37;56.97;;;51.90;;
44696;SDS011;57264;47.480;19.354;2023-01-28T00:16:03;55.03;;;49.90;;
44696;SDS011;57264;47.480;19.354;2023-01-28T00:18:30;53.85;;;48.88;;
44696;SDS011;57264;47.480;19.354;2023-01-28T00:20:57;55.95;;;50.78;;
44696;SDS011;57264;47.480;19.354;2023-01-28T00:23:23;52.83;;;47.88;;
44696;SDS011;57264;47.480;19.354;2023-01-28T00:25:48;52.73;;;47.97;;
44696;SDS011;57264;47.480;19.354;2023-01-28T00:28:13;57.63;;;52.23;;
44696;SDS011;57264;47.480;19.354;2023-01-28T00:30:39;59.17;;;54.07;;
44696;SDS011;57264;47.480;19.354;2023-01-28T00:33:04;57.10;;;52.10;;
44696;SDS011;57264;47.480;19.354;2023-01-28T00:35:30;62.17;;;56.80;;
44696;SDS011;57264;47.480;19.354;2023-01-28T00:37:55;57.17;;;52.33;;
44696;SDS011;57264;47.480;19.354;2023-01-28T00:40:20;56.87;;;51.90;;
44696;SDS011;57264;47.480;19.354;2023-01-28T00:42:46;59.33;;;54.30;;
44696;SDS011;57264;47.480;19.354;2023-01-28T00:45:11;57.90;;;52.87;;
44696;SDS011;57264;47.480;19.354;2023-01-28T00:47:36;57.03;;;52.03;;
44696;SDS011;57264;47.480;19.354;2023-01-28T00:50:02;58.67;;;53.47;;
44696;SDS011;57264;47.480;19.354;2023-01-28T00:52:27;56.70;;;51.80;;
44696;SDS011;57264;47.480;19.354;2023-01-28T00:54:52;57.63;;;52.60;;
44696;SDS011;57264;47.480;19.354;2023-01-28T00:57:18;51.10;;;46.57;;
44696;SDS011;57264;47.480;19.354;2023-01-28T00:59:43;55.00;;;50.17;;
44696;SDS011;57264;47.480;19.354;2023-01-28T01:04:34;54.90;;;50.25;;
44696;SDS011;57264;47.480;19.354;2023-01-28T01:06:59;55.47;;;50.73;;
44696;SDS011;57264;47.480;19.354;2023-01-28T01:09:24;49.67;;;44.97;;
44696;SDS011;57264;47.480;19.354;2023-01-28T01:11:50;59.23;;;54.07;;
44696;SDS011;57264;47.480;19.354;2023-01-28T01:14:15;50.83;;;46.33;;
44696;SDS011;57264;47.480;19.354;2023-01-28T01:16:40;57.17;;;52.20;;
44696;SDS011;57264;47.480;19.354;2023-01-28T01:19:06;56.13;;;51.33;;
44696;SDS011;57264;47.480;19.354;2023-01-28T01:21:33;53.65;;;49.13;;
44696;SDS011;57264;47.480;19.354;2023-01-28T01:23:58;55.50;;;50.83;;
44696;SDS011;57264;47.480;19.354;2023-01-28T01:26:24;54.80;;;50.33;;
44696;SDS011;57264;47.480;19.354;2023-01-28T01:28:51;50.25;;;45.88;;
44696;SDS011;57264;47.480;19.354;2023-01-28T01:31:17;52.37;;;47.53;;
44696;SDS011;57264;47.480;19.354;2023-01-28T01:33:45;53.17;;;48.38;;
44696;SDS011;57264;47.480;19.354;2023-01-28T01:36:11;48.92;;;44.70;;
44696;SDS011;57264;47.480;19.354;2023-01-28T01:38:37;53.70;;;49.15;;
44696;SDS011;57264;47.480;19.354;2023-01-28T01:41:03;51.67;;;47.00;;
44696;SDS011;57264;47.480;19.354;2023-01-28T01:46:13;53.60;;;49.08;;
44696;SDS011;57264;47.480;19.354;2023-01-28T01:48:39;54.85;;;50.30;;
44696;SDS011;57264;47.480;19.354;2023-01-28T01:51:06;52.23;;;47.87;;
44696;SDS011;57264;47.480;19.354;2023-01-28T01:53:33;56.10;;;51.58;;
44696;SDS011;57264;47.480;19.354;2023-01-28T01:56:01;56.55;;;52.08;;
44696;SDS011;57264;47.480;19.354;2023-01-28T01:58:28;51.50;;;47.20;;
44696;SDS011;57264;47.480;19.354;2023-01-28T02:00:55;54.53;;;49.97;;
44696;SDS011;57264;47.480;19.354;2023-01-28T02:03:24;54.90;;;50.50;;
44696;SDS011;57264;47.480;19.354;2023-01-28T02:05:51;54.83;;;50.38;;
44696;SDS011;57264;47.480;19.354;2023-01-28T02:08:17;58.07;;;53.43;;
44696;SDS011;57264;47.480;19.354;2023-01-28T02:10:54;55.25;;;50.72;;
44696;SDS011;57264;47.480;19.354;2023-01-28T02:13:21;52.55;;;48.38;;
44696;SDS011;57264;47.480;19.354;2023-01-28T02:15:48;52.97;;;48.67;;
44696;SDS011;57264;47.480;19.354;2023-01-28T02:18:14;51.87;;;47.57;;
44696;SDS011;57264;47.480;19.354;2023-01-28T02:23:51;54.15;;;49.85;;
44696;SDS011;57264;47.480;19.354;2023-01-28T02:31:19;49.42;;;45.42;;
44696;SDS011;57264;47.480;19.354;2023-01-28T02:36:26;56.33;;;51.85;;
44696;SDS011;57264;47.480;19.354;2023-01-28T02:38:52;55.95;;;51.20;;
44696;SDS011;57264;47.480;19.354;2023-01-28T02:41:39;55.58;;;51.17;;
44696;SDS011;57264;47.480;19.354;2023-01-28T02:44:06;55.13;;;50.75;;
44696;SDS011;57264;47.480;19.354;2023-01-28T02:46:35;54.23;;;49.50;;
44696;SDS011;57264;47.480;19.354;2023-01-28T02:49:22;50.45;;;46.20;;
44696;SDS011;57264;47.480;19.354;2023-01-28T02:51:55;54.63;;;50.13;;
44696;SDS011;57264;47.480;19.354;2023-01-28T03:07:38;46.90;;;42.53;;
44696;SDS011;57264;47.480;19.354;2023-01-28T03:10:04;45.40;;;41.20;;
44696;SDS011;57264;47.480;19.354;2023-01-28T03:12:31;48.28;;;44.17;;
44696;SDS011;57264;47.480;19.354;2023-01-28T03:15:21;52.08;;;47.72;;
44696;SDS011;57264;47.480;19.354;2023-01-28T03:18:09;54.25;;;49.80;;
44696;SDS011;57264;47.480;19.354;2023-01-28T03:23:48;39.08;;;35.28;;
44696;SDS011;57264;47.480;19.354;2023-01-28T03:26:36;44.08;;;40.08;;
44696;SDS011;57264;47.480;19.354;2023-01-28T03:29:21;50.80;;;46.22;;
44696;SDS011;57264;47.480;19.354;2023-01-28T03:32:06;38.90;;;35.13;;
44696;SDS011;57264;47.480;19.354;2023-01-28T03:34:50;43.00;;;39.08;;
44696;SDS011;57264;47.480;19.354;2023-01-28T03:37:34;43.03;;;38.70;;
44696;SDS011;57264;47.480;19.354;2023-01-28T03:40:01;54.80;;;49.37;;
44696;SDS011;57264;47.480;19.354;2023-01-28T03:42:26;50.22;;;45.25;;
44696;SDS011;57264;47.480;19.354;2023-01-28T03:44:51;49.73;;;45.10;;
44696;SDS011;57264;47.480;19.354;2023-01-28T03:47:27;46.33;;;41.93;;
44696;SDS011;57264;47.480;19.354;2023-01-28T03:49:54;49.13;;;44.35;;
44696;SDS011;57264;47.480;19.354;2023-01-28T03:52:21;42.95;;;38.65;;
44696;SDS011;57264;47.480;19.354;2023-01-28T03:54:46;36.03;;;32.42;;
44696;SDS011;57264;47.480;19.354;2023-01-28T03:57:13;38.80;;;34.70;;
44696;SDS011;57264;47.480;19.354;2023-01-28T03:59:39;49.38;;;44.47;;
44696;SDS011;57264;47.480;19.354;2023-01-28T04:02:05;43.83;;;39.38;;
44696;SDS011;57264;47.480;19.354;2023-01-28T04:04:31;43.80;;;39.23;;
44696;SDS011;57264;47.480;19.354;2023-01-28T04:06:57;39.80;;;33.77;;
44696;SDS011;57264;47.480;19.354;2023-01-28T04:09:22;38.53;;;33.90;;
44696;SDS011;57264;47.480;19.354;2023-01-28T04:11:48;38.90;;;30.00;;
44696;SDS011;57264;47.480;19.354;2023-01-28T04:14:14;37.67;;;27.95;;
44696;SDS011;57264;47.480;19.354;2023-01-28T04:16:40;40.80;;;35.53;;
44696;SDS011;57264;47.480;19.354;2023-01-28T04:19:07;36.45;;;27.92;;
44696;SDS011;57264;47.480;19.354;2023-01-28T04:21:32;36.33;;;25.40;;
44696;SDS011;57264;47.480;19.354;2023-01-28T04:23:57;34.63;;;26.30;;
44696;SDS011;57264;47.480;19.354;2023-01-28T04:26:22;43.40;;;32.03;;
44696;SDS011;57264;47.480;19.354;2023-01-28T04:28:48;35.63;;;27.90;;
44696;SDS011;57264;47.480;19.354;2023-01-28T04:31:13;35.53;;;28.67;;
44696;SDS011;57264;47.480;19.354;2023-01-28T04:33:38;39.97;;;34.20;;
44696;SDS011;57264;47.480;19.354;2023-01-28T04:36:04;38.97;;;29.67;;
44696;SDS011;57264;47.480;19.354;2023-01-28T04:38:29;38.40;;;26.93;;
44696;SDS011;57264;47.480;19.354;2023-01-28T04:40:54;43.77;;;29.83;;
44696;SDS011;57264;47.480;19.354;2023-01-28T04:43:20;36.33;;;27.87;;
44696;SDS011;57264;47.480;19.354;2023-01-28T04:45:46;34.13;;;26.33;;
44696;SDS011;57264;47.480;19.354;2023-01-28T04:48:11;34.63;;;27.37;;
44696;SDS011;57264;47.480;19.354;2023-01-28T04:50:37;35.38;;;27.42;;
44696;SDS011;57264;47.480;19.354;2023-01-28T04:53:02;37.37;;;25.43;;
44696;SDS011;57264;47.480;19.354;2023-01-28T04:55:28;36.90;;;27.33;;
44696;SDS011;57264;47.480;19.354;2023-01-28T04:57:53;34.07;;;24.77;;
44696;SDS011;57264;47.480;19.354;2023-01-28T05:00:18;35.80;;;26.77;;
44696;SDS011;57264;47.480;19.354;2023-01-28T05:02:44;36.57;;;26.87;;
44696;SDS011;57264;47.480;19.354;2023-01-28T05:05:09;38.63;;;28.40;;
44696;SDS011;57264;47.480;19.354;2023-01-28T05:07:35;39.13;;;28.77;;
44696;SDS011;57264;47.480;19.354;2023-01-28T05:10:00;35.20;;;25.50;;
44696;SDS011;57264;47.480;19.354;2023-01-28T05:12:26;34.70;;;26.17;;
44696;SDS011;57264;47.480;19.354;2023-01-28T05:14:51;38.57;;;31.00;;
44696;SDS011;57264;47.480;19.354;2023-01-28T05:17:16;34.50;;;26.50;;
44696;SDS011;57264;47.480;19.354;2023-01-28T05:19:42;36.27;;;27.07;;
44696;SDS011;57264;47.480;19.354;2023-01-28T05:22:07;39.90;;;28.00;;
44696;SDS011;57264;47.480;19.354;2023-01-28T05:24:33;34.73;;;26.50;;
44696;SDS011;57264;47.480;19.354;2023-01-28T05:26:58;39.00;;;28.43;;
44696;SDS011;57264;47.480;19.354;2023-01-28T05:29:23;43.80;;;31.50;;
44696;SDS011;57264;47.480;19.354;2023-01-28T05:31:49;45.67;;;40.77;;
44696;SDS011;57264;47.480;19.354;2023-01-28T05:34:14;38.13;;;30.73;;
44696;SDS011;57264;47.480;19.354;2023-01-28T05:36:40;39.73;;;31.90;;
44696;SDS011;57264;47.480;19.354;2023-01-28T05:39:05;38.77;;;34.53;;
44696;SDS011;57264;47.480;19.354;2023-01-28T05:41:31;43.50;;;39.28;;
44696;SDS011;57264;47.480;19.354;2023-01-28T05:43:57;39.53;;;35.47;;
44696;SDS011;57264;47.480;19.354;2023-01-28T05:46:22;43.07;;;38.80;;
44696;SDS011;57264;47.480;19.354;2023-01-28T05:48:49;50.05;;;45.67;;
44696;SDS011;57264;47.480;19.354;2023-01-28T05:51:15;48.53;;;44.23;;
44696;SDS011;57264;47.480;19.354;2023-01-28T05:53:40;47.87;;;43.37;;
44696;SDS011;57264;47.480;19.354;2023-01-28T05:56:06;50.40;;;45.87;;
44696;SDS011;57264;47.480;19.354;2023-01-28T05:58:31;42.67;;;38.87;;
44696;SDS011;57264;47.480;19.354;2023-01-28T06:00:56;46.73;;;42.37;;
44696;SDS011;57264;47.480;19.354;2023-01-28T06:03:22;37.83;;;33.83;;
44696;SDS011;57264;47.480;19.354;2023-01-28T06:05:47;37.97;;;33.97;;
44696;SDS011;57264;47.480;19.354;2023-01-28T06:08:13;47.40;;;43.23;;
44696;SDS011;57264;47.480;19.354;2023-01-28T06:10:38;37.03;;;33.53;;
44696;SDS011;57264;47.480;19.354;2023-01-28T06:13:04;44.40;;;40.50;;
44696;SDS011;57264;47.480;19.354;2023-01-28T06:15:29;33.27;;;29.83;;
44696;SDS011;57264;47.480;19.354;2023-01-28T06:17:54;42.40;;;38.20;;
44696;SDS011;57264;47.480;19.354;2023-01-28T06:20:19;42.43;;;38.03;;
44696;SDS011;57264;47.480;19.354;2023-01-28T06:22:45;46.93;;;42.43;;
44696;SDS011;57264;47.480;19.354;2023-01-28T06:25:10;43.57;;;39.07;;
44696;SDS011;57264;47.480;19.354;2023-01-28T06:27:36;39.40;;;35.03;;
44696;SDS011;57264;47.480;19.354;2023-01-28T06:30:01;46.47;;;42.17;;
44696;SDS011;57264;47.480;19.354;2023-01-28T06:32:27;44.23;;;40.23;;
44696;SDS011;57264;47.480;19.354;2023-01-28T06:34:52;41.63;;;37.60;;
44696;SDS011;57264;47.480;19.354;2023-01-28T06:37:17;49.67;;;44.97;;
44696;SDS011;57264;47.480;19.354;2023-01-28T06:39:43;45.80;;;41.47;;
44696;SDS011;57264;47.480;19.354;2023-01-28T06:42:08;52.93;;;48.20;;
44696;SDS011;57264;47.480;19.354;2023-01-28T06:44:34;42.00;;;37.77;;
44696;SDS011;57264;47.480;19.354;2023-01-28T06:46:59;46.13;;;42.10;;
44696;SDS011;57264;47.480;19.354;2023-01-28T06:49:24;48.30;;;44.37;;
44696;SDS011;57264;47.480;19.354;2023-01-28T06:51:50;52.30;;;47.70;;
44696;SDS011;57264;47.480;19.354;2023-01-28T06:54:15;51.67;;;47.33;;
44696;SDS011;57264;47.480;19.354;2023-01-28T06:56:40;47.33;;;42.90;;
44696;SDS011;57264;47.480;19.354;2023-01-28T06:59:06;46.53;;;42.67;;
44696;SDS011;57264;47.480;19.354;2023-01-28T07:01:32;45.47;;;41.50;;
44696;SDS011;57264;47.480;19.354;2023-01-28T07:03:57;43.27;;;39.37;;
44696;SDS011;57264;47.480;19.354;2023-01-28T07:06:22;49.93;;;45.87;;
44696;SDS011;57264;47.480;19.354;2023-01-28T07:08:48;43.60;;;39.80;;
44696;SDS011;57264;47.480;19.354;2023-01-28T07:11:14;47.17;;;43.17;;
44696;SDS011;57264;47.480;19.354;2023-01-28T07:13:39;40.50;;;36.83;;
44696;SDS011;57264;47.480;19.354;2023-01-28T07:16:05;38.90;;;35.23;;
44696;SDS011;57264;47.480;19.354;2023-01-28T07:18:30;44.13;;;40.33;;
44696;SDS011;57264;47.480;19.354;2023-01-28T07:20:55;32.43;;;29.43;;
44696;SDS011;57264;47.480;19.354;2023-01-28T07:23:21;42.50;;;38.30;;
44696;SDS011;57264;47.480;19.354;2023-01-28T07:25:47;41.63;;;37.80;;
44696;SDS011;57264;47.480;19.354;2023-01-28T07:28:12;31.13;;;27.93;;
44696;SDS011;57264;47.480;19.354;2023-01-28T07:30:38;48.20;;;44.27;;
44696;SDS011;57264;47.480;19.354;2023-01-28T07:33:03;42.43;;;38.53;;
44696;SDS011;57264;47.480;19.354;2023-01-28T07:35:28;29.60;;;26.40;;
44696;SDS011;57264;47.480;19.354;2023-01-28T07:37:56;34.53;;;30.77;;
44696;SDS011;57264;47.480;19.354;2023-01-28T07:40:22;33.58;;;30.02;;
44696;SDS011;57264;47.480;19.354;2023-01-28T07:42:48;34.37;;;27.77;;
44696;SDS011;57264;47.480;19.354;2023-01-28T07:45:13;39.37;;;35.77;;
44696;SDS011;57264;47.480;19.354;2023-01-28T07:47:38;31.87;;;28.47;;
44696;SDS011;57264;47.480;19.354;2023-01-28T07:50:04;39.17;;;34.93;;
44696;SDS011;57264;47.480;19.354;2023-01-28T07:52:29;42.93;;;38.77;;
44696;SDS011;57264;47.480;19.354;2023-01-28T07:54:55;40.53;;;36.43;;
44696;SDS011;57264;47.480;19.354;2023-01-28T07:57:20;35.10;;;29.87;;
44696;SDS011;57264;47.480;19.354;2023-01-28T07:59:50;42.22;;;37.75;;
44696;SDS011;57264;47.480;19.354;2023-01-28T08:02:16;43.78;;;39.47;;
44696;SDS011;57264;47.480;19.354;2023-01-28T08:04:42;48.60;;;43.80;;
44696;SDS011;57264;47.480;19.354;2023-01-28T08:07:07;44.37;;;33.20;;
44696;SDS011;57264;47.480;19.354;2023-01-28T08:09:32;44.97;;;40.23;;
44696;SDS011;57264;47.480;19.354;2023-01-28T08:12:01;43.33;;;38.83;;
44696;SDS011;57264;47.480;19.354;2023-01-28T08:14:27;42.78;;;31.40;;
44696;SDS011;57264;47.480;19.354;2023-01-28T08:16:52;45.37;;;38.83;;
44696;SDS011;57264;47.480;19.354;2023-01-28T08:19:18;46.33;;;41.53;;
44696;SDS011;57264;47.480;19.354;2023-01-28T08:21:46;41.67;;;35.08;;
44696;SDS011;57264;47.480;19.354;2023-01-28T08:24:11;37.92;;;30.10;;
44696;SDS011;57264;47.480;19.354;2023-01-28T08:26:36;50.43;;;41.53;;
44696;SDS011;57264;47.480;19.354;2023-01-28T08:29:02;45.10;;;38.70;;
44696;SDS011;57264;47.480;19.354;2023-01-28T08:31:27;48.40;;;43.17;;
44696;SDS011;57264;47.480;19.354;2023-01-28T08:33:53;47.10;;;38.77;;
44696;SDS011;57264;47.480;19.354;2023-01-28T08:36:18;44.47;;;35.67;;
44696;SDS011;57264;47.480;19.354;2023-01-28T08:38:44;48.93;;;36.57;;
44696;SDS011;57264;47.480;19.354;2023-01-28T08:41:09;41.33;;;31.70;;
44696;SDS011;57264;47.480;19.354;2023-01-28T08:43:35;44.90;;;33.53;;
44696;SDS011;57264;47.480;19.354;2023-01-28T08:46:00;46.97;;;33.97;;
44696;SDS011;57264;47.480;19.354;2023-01-28T08:48:25;43.20;;;35.97;;
44696;SDS011;57264;47.480;19.354;2023-01-28T08:50:51;41.53;;;35.87;;
44696;SDS011;57264;47.480;19.354;2023-01-28T08:53:17;48.03;;;43.23;;
44696;SDS011;57264;47.480;19.354;2023-01-28T08:55:43;48.13;;;43.63;;
44696;SDS011;57264;47.480;19.354;2023-01-28T08:58:09;37.87;;;32.03;;
44696;SDS011;57264;47.480;19.354;2023-01-28T09:00:35;41.17;;;36.70;;
44696;SDS011;57264;47.480;19.354;2023-01-28T09:03:01;43.33;;;38.83;;
44696;SDS011;57264;47.480;19.354;2023-01-28T09:05:27;40.15;;;35.05;;
44696;SDS011;57264;47.480;19.354;2023-01-28T09:07:52;39.90;;;33.13;;
44696;SDS011;57264;47.480;19.354;2023-01-28T09:10:18;36.13;;;28.87;;
44696;SDS011;57264;47.480;19.354;2023-01-28T09:12:44;37.80;;;33.92;;
44696;SDS011;57264;47.480;19.354;2023-01-28T09:15:10;39.23;;;35.27;;
44696;SDS011;57264;47.480;19.354;2023-01-28T09:17:35;46.00;;;41.57;;
44696;SDS011;57264;47.480;19.354;2023-01-28T09:20:01;34.33;;;26.93;;
44696;SDS011;57264;47.480;19.354;2023-01-28T09:22:26;41.77;;;37.47;;
44696;SDS011;57264;47.480;19.354;2023-01-28T09:24:51;32.77;;;28.37;;
44696;SDS011;57264;47.480;19.354;2023-01-28T09:27:17;39.80;;;35.60;;
44696;SDS011;57264;47.480;19.354;2023-01-28T09:29:42;39.07;;;34.97;;
44696;SDS011;57264;47.480;19.354;2023-01-28T09:32:07;44.13;;;39.67;;
44696;SDS011;57264;47.480;19.354;2023-01-28T09:34:33;35.13;;;31.33;;
44696;SDS011;57264;47.480;19.354;2023-01-28T09:36:58;42.53;;;38.47;;
44696;SDS011;57264;47.480;19.354;2023-01-28T09:39:24;42.53;;;38.70;;
44696;SDS011;57264;47.480;19.354;2023-01-28T09:42:07;46.50;;;42.38;;
44696;SDS011;57264;47.480;19.354;2023-01-28T09:47:24;41.42;;;37.30;;
44696;SDS011;57264;47.480;19.354;2023-01-28T09:49:50;40.72;;;36.70;;
44696;SDS011;57264;47.480;19.354;2023-01-28T09:52:18;41.75;;;38.00;;
44696;SDS011;57264;47.480;19.354;2023-01-28T09:54:45;40.13;;;36.35;;
44696;SDS011;57264;47.480;19.354;2023-01-28T09:57:56;39.42;;;35.63;;
44696;SDS011;57264;47.480;19.354;2023-01-28T10:00:07;36.35;;;32.65;;
44696;SDS011;57264;47.480;19.354;2023-01-28T10:02:45;36.00;;;32.58;;
44696;SDS011;57264;47.480;19.354;2023-01-28T10:10:43;37.90;;;34.17;;
44696;SDS011;57264;47.480;19.354;2023-01-28T10:13:16;39.60;;;36.08;;
44696;SDS011;57264;47.480;19.354;2023-01-28T10:18:18;38.42;;;34.78;;
44696;SDS011;57264;47.480;19.354;2023-01-28T10:20:52;39.88;;;36.38;;
44696;SDS011;57264;47.480;19.354;2023-01-28T10:25:43;35.47;;;32.17;;
44696;SDS011;57264;47.480;19.354;2023-01-28T10:28:18;35.38;;;31.88;;
44696;SDS011;57264;47.480;19.354;2023-01-28T10:30:45;39.85;;;36.08;;
44696;SDS011;57264;47.480;19.354;2023-01-28T10:35:55;36.30;;;32.85;;
44696;SDS011;57264;47.480;19.354;2023-01-28T10:38:21;37.03;;;33.73;;
44696;SDS011;57264;47.480;19.354;2023-01-28T10:40:47;33.13;;;30.15;;
44696;SDS011;57264;47.480;19.354;2023-01-28T10:43:17;39.03;;;35.27;;
44696;SDS011;57264;47.480;19.354;2023-01-28T10:45:51;33.40;;;30.10;;
44696;SDS011;57264;47.480;19.354;2023-01-28T10:48:20;32.70;;;29.58;;
44696;SDS011;57264;47.480;19.354;2023-01-28T10:50:52;37.40;;;33.92;;
44696;SDS011;57264;47.480;19.354;2023-01-28T10:53:18;39.42;;;35.78;;
44696;SDS011;57264;47.480;19.354;2023-01-28T10:55:51;36.27;;;32.80;;
44696;SDS011;57264;47.480;19.354;2023-01-28T10:58:20;34.33;;;31.02;;
44696;SDS011;57264;47.480;19.354;2023-01-28T11:00:51;39.75;;;35.90;;
44696;SDS011;57264;47.480;19.354;2023-01-28T11:03:17;35.90;;;32.30;;
44696;SDS011;57264;47.480;19.354;2023-01-28T11:05:48;36.07;;;32.70;;
44696;SDS011;57264;47.480;19.354;2023-01-28T11:08:15;38.15;;;34.75;;
44696;SDS011;57264;47.480;19.354;2023-01-28T11:10:40;30.30;;;27.08;;
44696;SDS011;57264;47.480;19.354;2023-01-28T11:13:28;33.77;;;30.53;;
44696;SDS011;57264;47.480;19.354;2023-01-28T11:15:53;37.17;;;33.63;;
44696;SDS011;57264;47.480;19.354;2023-01-28T11:18:53;32.33;;;29.02;;
44696;SDS011;57264;47.480;19.354;2023-01-28T11:21:32;30.50;;;27.35;;
44696;SDS011;57264;47.480;19.354;2023-01-28T11:26:44;38.67;;;34.88;;
44696;SDS011;57264;47.480;19.354;2023-01-28T11:29:19;36.67;;;33.08;;
44696;SDS011;57264;47.480;19.354;2023-01-28T11:31:46;32.03;;;28.85;;
44696;SDS011;57264;47.480;19.354;2023-01-28T11:34:11;28.43;;;25.67;;
44696;SDS011;57264;47.480;19.354;2023-01-28T11:36:48;26.95;;;24.20;;
44696;SDS011;57264;47.480;19.354;2023-01-28T11:39:21;30.27;;;27.10;;
44696;SDS011;57264;47.480;19.354;2023-01-28T11:41:47;31.63;;;28.67;;
44696;SDS011;57264;47.480;19.354;2023-01-28T11:44:16;24.63;;;22.17;;
44696;SDS011;57264;47.480;19.354;2023-01-28T11:54:45;24.63;;;21.40;;
44696;SDS011;57264;47.480;19.354;2023-01-28T11:57:53;26.15;;;22.00;;
44696;SDS011;57264;47.480;19.354;2023-01-28T12:07:58;23.90;;;20.45;;
44696;SDS011;57264;47.480;19.354;2023-01-28T12:18:36;49.38;;;38.60;;
44696;SDS011;57264;47.480;19.354;2023-01-28T12:21:06;25.92;;;21.63;;
44696;SDS011;57264;47.480;19.354;2023-01-28T12:26:25;31.83;;;28.45;;
44696;SDS011;57264;47.480;19.354;2023-01-28T12:37:02;26.80;;;20.88;;
44696;SDS011;57264;47.480;19.354;2023-01-28T12:42:08;26.90;;;22.67;;
44696;SDS011;57264;47.480;19.354;2023-01-28T12:44:36;25.23;;;22.00;;
44696;SDS011;57264;47.480;19.354;2023-01-28T12:47:08;29.17;;;25.30;;
44696;SDS011;57264;47.480;19.354;2023-01-28T12:49:36;25.30;;;19.83;;
44696;SDS011;57264;47.480;19.354;2023-01-28T12:52:07;22.70;;;19.90;;
44696;SDS011;57264;47.480;19.354;2023-01-28T12:57:20;26.45;;;22.05;;
44696;SDS011;57264;47.480;19.354;2023-01-28T13:00:11;25.30;;;22.63;;
44696;SDS011;57264;47.480;19.354;2023-01-28T13:02:37;24.30;;;19.85;;
44696;SDS011;57264;47.480;19.354;2023-01-28T13:05:20;26.38;;;23.25;;
44696;SDS011;57264;47.480;19.354;2023-01-28T13:07:48;23.60;;;19.65;;
44696;SDS011;57264;47.480;19.354;2023-01-28T13:10:18;22.52;;;20.13;;
44696;SDS011;57264;47.480;19.354;2023-01-28T13:12:46;23.75;;;20.73;;
44696;SDS011;57264;47.480;19.354;2023-01-28T13:15:12;24.97;;;21.87;;
44696;SDS011;57264;47.480;19.354;2023-01-28T13:17:39;28.38;;;23.23;;
44696;SDS011;57264;47.480;19.354;2023-01-28T13:20:28;20.85;;;18.30;;
44696;SDS011;57264;47.480;19.354;2023-01-28T13:23:02;21.42;;;17.55;;
44696;SDS011;57264;47.480;19.354;2023-01-28T13:25:27;21.65;;;18.45;;
44696;SDS011;57264;47.480;19.354;2023-01-28T13:27:56;23.33;;;21.03;;
44696;SDS011;57264;47.480;19.354;2023-01-28T13:30:28;22.65;;;20.17;;
44696;SDS011;57264;47.480;19.354;2023-01-28T13:33:02;19.83;;;16.70;;
44696;SDS011;57264;47.480;19.354;2023-01-28T13:35:37;21.02;;;18.10;;
44696;SDS011;57264;47.480;19.354;2023-01-28T13:38:07;18.17;;;16.20;;
44696;SDS011;57264;47.480;19.354;2023-01-28T13:40:34;21.33;;;18.38;;
44696;SDS011;57264;47.480;19.354;2023-01-28T13:43:04;22.67;;;19.07;;
44696;SDS011;57264;47.480;19.354;2023-01-28T13:45:30;20.52;;;18.30;;
44696;SDS011;57264;47.480;19.354;2023-01-28T13:48:00;19.50;;;15.87;;
44696;SDS011;57264;47.480;19.354;2023-01-28T13:50:36;19.08;;;16.13;;
44696;SDS011;57264;47.480;19.354;2023-01-28T13:53:04;18.77;;;15.30;;
44696;SDS011;57264;47.480;19.354;2023-01-28T13:55:35;22.17;;;15.95;;
44696;SDS011;57264;47.480;19.354;2023-01-28T14:18:14;18.48;;;14.18;;
44696;SDS011;57264;47.480;19.354;2023-01-28T14:20:43;17.05;;;14.52;;
44696;SDS011;57264;47.480;19.354;2023-01-28T14:23:15;18.17;;;15.95;;
44696;SDS011;57264;47.480;19.354;2023-01-28T14:25:49;18.73;;;16.85;;
44696;SDS011;57264;47.480;19.354;2023-01-28T14:28:19;17.08;;;13.30;;
44696;SDS011;57264;47.480;19.354;2023-01-28T14:33:30;22.20;;;17.30;;
44696;SDS011;57264;47.480;19.354;2023-01-28T14:35:55;21.73;;;17.20;;
44696;SDS011;57264;47.480;19.354;2023-01-28T14:38:21;22.23;;;16.83;;
44696;SDS011;57264;47.480;19.354;2023-01-28T14:40:50;22.10;;;16.37;;
44696;SDS011;57264;47.480;19.354;2023-01-28T14:43:23;22.17;;;17.65;;
44696;SDS011;57264;47.480;19.354;2023-01-28T14:48:24;26.17;;;20.83;;
44696;SDS011;57264;47.480;19.354;2023-01-28T14:58:41;22.77;;;18.08;;
44696;SDS011;57264;47.480;19.354;2023-01-28T15:03:46;24.10;;;20.73;;
44696;SDS011;57264;47.480;19.354;2023-01-28T15:06:13;23.47;;;19.57;;
44696;SDS011;57264;47.480;19.354;2023-01-28T15:08:39;20.05;;;17.85;;
44696;SDS011;57264;47.480;19.354;2023-01-28T15:11:05;23.13;;;18.43;;
44696;SDS011;57264;47.480;19.354;2023-01-28T15:13:33;26.15;;;21.70;;
44696;SDS011;57264;47.480;19.354;2023-01-28T15:16:00;26.45;;;21.02;;
44696;SDS011;57264;47.480;19.354;2023-01-28T15:18:30;24.60;;;20.77;;
44696;SDS011;57264;47.480;19.354;2023-01-28T15:20:57;27.95;;;22.80;;
44696;SDS011;57264;47.480;19.354;2023-01-28T15:23:43;30.52;;;25.13;;
44696;SDS011;57264;47.480;19.354;2023-01-28T15:26:13;25.55;;;22.48;;
44696;SDS011;57264;47.480;19.354;2023-01-28T15:28:41;26.60;;;21.98;;
44696;SDS011;57264;47.480;19.354;2023-01-28T15:31:15;25.85;;;19.52;;
44696;SDS011;57264;47.480;19.354;2023-01-28T15:33:45;26.15;;;22.15;;
44696;SDS011;57264;47.480;19.354;2023-01-28T15:36:10;24.42;;;19.88;;
44696;SDS011;57264;47.480;19.354;2023-01-28T15:38:36;24.37;;;18.13;;
44696;SDS011;57264;47.480;19.354;2023-01-28T15:41:02;23.63;;;21.10;;
44696;SDS011;57264;47.480;19.354;2023-01-28T15:43:31;25.93;;;20.47;;
44696;SDS011;57264;47.480;19.354;2023-01-28T15:45:58;24.88;;;20.55;;
44696;SDS011;57264;47.480;19.354;2023-01-28T15:48:25;25.98;;;20.73;;
44696;SDS011;57264;47.480;19.354;2023-01-28T15:51:01;26.92;;;22.90;;
44696;SDS011;57264;47.480;19.354;2023-01-28T15:53:30;27.13;;;22.20;;
44696;SDS011;57264;47.480;19.354;2023-01-28T15:56:04;27.98;;;23.48;;
44696;SDS011;57264;47.480;19.354;2023-01-28T15:58:30;26.50;;;23.23;;
44696;SDS011;57264;47.480;19.354;2023-01-28T16:01:17;27.52;;;21.88;;
44696;SDS011;57264;47.480;19.354;2023-01-28T16:03:44;36.60;;;32.28;;
44696;SDS011;57264;47.480;19.354;2023-01-28T16:06:17;33.80;;;29.13;;
44696;SDS011;57264;47.480;19.354;2023-01-28T16:08:56;33.88;;;30.13;;
44696;SDS011;57264;47.480;19.354;2023-01-28T16:13:50;31.97;;;28.57;;
44696;SDS011;57264;47.480;19.354;2023-01-28T16:16:23;30.07;;;26.80;;
44696;SDS011;57264;47.480;19.354;2023-01-28T16:18:51;33.92;;;28.42;;
44696;SDS011;57264;47.480;19.354;2023-01-28T16:21:59;46.08;;;32.88;;
44696;SDS011;57264;47.480;19.354;2023-01-28T16:27:36;31.25;;;27.52;;